Dream Diva — 3EKW6 — position and weather

sailwx.info

Track history (hours):
 
Tides and Currents Weather Stations Pressure Air Temp Water Temp Dewpoint Dewpoint Depression Visibility Wind Speed Wind Dir Waves Ship Positions

Dream Diva

Last reported at 2016-Jul-20 09:33 UTC. Time now 2016-Jul-29 02:10 UTC.
Position S 36°19' E 174°58'.
Warning: this ship's position is 8 days out of date.

Length 186 m; draft 7.1 m.

Type: Cargo ship. MMSI: 372856000.

Date/timePositionNaut miles runAvg speedWind from/ knotsBaromVisibWave heightAir tempDewpointWater temp
2016-Jul-20 09:33S 36°19' E 174°58'1211.9
2016-Jul-20 08:33S 36°31' E 174°59'1515.1
2016-Jul-20 07:33S 36°44' E 174°50'7 6.9
2016-Jul-20 06:34S 36°50' E 174°46'0 0.0
2016-Jul-20 05:30S 36°50' E 174°46'0 0.0
2016-Jul-20 04:30S 36°50' E 174°46'0 0.0
2016-Jul-20 03:30S 36°50' E 174°46'0 0.0
2016-Jul-20 02:30S 36°50' E 174°46'0 0.0
2016-Jul-20 01:30S 36°50' E 174°46'0 0.0
2016-Jul-20 00:30S 36°50' E 174°46'0 0.0
2016-Jul-19 23:30S 36°50' E 174°46'0 0.0
2016-Jul-19 22:30S 36°50' E 174°46'0 0.0
2016-Jul-19 21:30S 36°50' E 174°46'0 0.0
2016-Jul-19 20:30S 36°50' E 174°46'0 0.0
2016-Jul-19 19:30S 36°50' E 174°46'0 0.0
2016-Jul-19 18:30S 36°50' E 174°46'0 0.0
2016-Jul-19 17:30S 36°50' E 174°46'0 0.0
2016-Jul-19 16:30S 36°50' E 174°46'0 0.0
2016-Jul-19 15:30S 36°50' E 174°46'0 0.0
2016-Jul-19 14:30S 36°50' E 174°46'0 0.0
2016-Jul-19 13:30S 36°50' E 174°46'0 0.0
2016-Jul-19 12:30S 36°50' E 174°46'0 0.0
2016-Jul-19 11:30S 36°50' E 174°46'0 0.0
2016-Jul-19 10:30S 36°50' E 174°46'0 0.0
2016-Jul-19 09:30S 36°50' E 174°46'0 0.0
2016-Jul-19 08:30S 36°50' E 174°46'0 0.0
2016-Jul-19 07:30S 36°50' E 174°46'0 0.0
2016-Jul-19 04:30S 36°50' E 174°46'0 0.0
2016-Jul-19 03:30S 36°50' E 174°46'0 0.0
2016-Jul-19 02:30S 36°50' E 174°46'0 0.0
2016-Jul-19 01:30S 36°50' E 174°46'0 0.1
2016-Jul-19 00:30S 36°50' E 174°46'0 0.0
2016-Jul-18 23:30S 36°50' E 174°46'0 0.0
2016-Jul-18 21:30S 36°50' E 174°46'0 0.0
2016-Jul-18 20:12S 36°50' E 174°46'0 0.1
2016-Jul-18 19:30S 36°50' E 174°46'0 0.0
2016-Jul-18 18:30S 36°50' E 174°46'0 0.0
2016-Jul-18 17:24S 36°50' E 174°46'0 0.0
2016-Jul-18 16:24S 36°50' E 174°46'0 0.0
2016-Jul-18 15:24S 36°50' E 174°46'0 0.0
2016-Jul-18 14:30S 36°50' E 174°46'0 0.0
2016-Jul-18 10:30S 36°50' E 174°46'3 3.7
2016-Jul-18 09:33S 36°49' E 174°50'5 5.4
2016-Jul-18 08:32S 36°43' E 174°51'0 0.1
2016-Jul-18 07:32S 36°43' E 174°51'0 0.1
2016-Jul-18 06:20S 36°43' E 174°51'0 0.0
2016-Jul-18 05:32S 36°43' E 174°51'0 0.1
2016-Jul-18 04:32S 36°43' E 174°51'0 0.0
2016-Jul-18 03:32S 36°43' E 174°51'0 0.0
2016-Jul-18 02:26S 36°43' E 174°51'0 0.1
2016-Jul-18 01:32S 36°43' E 174°51'0 0.1
2016-Jul-18 00:32S 36°43' E 174°51'0 0.0
2016-Jul-17 23:26S 36°43' E 174°51'0 0.0
2016-Jul-17 22:32S 36°43' E 174°51'0 0.1
2016-Jul-17 21:32S 36°43' E 174°51'0 0.0
2016-Jul-17 20:32S 36°43' E 174°51'0 0.1
2016-Jul-17 19:32S 36°43' E 174°51'0 0.0
2016-Jul-17 18:32S 36°43' E 174°51'0 0.0
2016-Jul-17 17:32S 36°43' E 174°51'0 0.0
2016-Jul-17 16:26S 36°43' E 174°51'0 0.0
2016-Jul-17 15:32S 36°43' E 174°51'0 0.0
2016-Jul-17 14:32S 36°43' E 174°51'0 0.0
2016-Jul-17 13:32S 36°43' E 174°51'0 0.0
2016-Jul-17 12:32S 36°43' E 174°51'0 0.0
2016-Jul-17 11:32S 36°43' E 174°51'0 0.0
2016-Jul-17 10:32S 36°43' E 174°51'0 0.1
2016-Jul-17 09:32S 36°43' E 174°51'1 0.5
2016-Jul-17 08:33S 36°43' E 174°51'8 8.2
2016-Jul-17 07:33S 36°37' E 174°57'7 6.9
2016-Jul-17 06:33S 36°30' E 174°59'13 6.3
2016-Jul-17 04:33S 36°18' E 174°58'  
Track history (hours):
 
Tides and Currents Weather Stations Pressure Air Temp Water Temp Dewpoint Dewpoint Depression Visibility Wind Speed Wind Dir Waves Ship Positions

Dream Diva

Last reported at 2016-Jul-20 09:33 UTC. Time now 2016-Jul-29 02:10 UTC.
Position S 36°19' E 174°58'.
Warning: this ship's position is 8 days out of date.

Length 186 m; draft 7.1 m.

Type: Cargo ship. MMSI: 372856000.

Date/timePositionNaut miles runAvg speedWind from/ knotsBaromVisibWave heightAir tempDewpointWater temp
2016-Jul-20 09:33S 36°19' E 174°58'1211.9
2016-Jul-20 08:33S 36°31' E 174°59'1515.1
2016-Jul-20 07:33S 36°44' E 174°50'7 6.9
2016-Jul-20 06:34S 36°50' E 174°46'0 0.0
2016-Jul-20 05:30S 36°50' E 174°46'0 0.0
2016-Jul-20 04:30S 36°50' E 174°46'0 0.0
2016-Jul-20 03:30S 36°50' E 174°46'0 0.0
2016-Jul-20 02:30S 36°50' E 174°46'0 0.0
2016-Jul-20 01:30S 36°50' E 174°46'0 0.0
2016-Jul-20 00:30S 36°50' E 174°46'0 0.0
2016-Jul-19 23:30S 36°50' E 174°46'0 0.0
2016-Jul-19 22:30S 36°50' E 174°46'0 0.0
2016-Jul-19 21:30S 36°50' E 174°46'0 0.0
2016-Jul-19 20:30S 36°50' E 174°46'0 0.0
2016-Jul-19 19:30S 36°50' E 174°46'0 0.0
2016-Jul-19 18:30S 36°50' E 174°46'0 0.0
2016-Jul-19 17:30S 36°50' E 174°46'0 0.0
2016-Jul-19 16:30S 36°50' E 174°46'0 0.0
2016-Jul-19 15:30S 36°50' E 174°46'0 0.0
2016-Jul-19 14:30S 36°50' E 174°46'0 0.0
2016-Jul-19 13:30S 36°50' E 174°46'0 0.0
2016-Jul-19 12:30S 36°50' E 174°46'0 0.0
2016-Jul-19 11:30S 36°50' E 174°46'0 0.0
2016-Jul-19 10:30S 36°50' E 174°46'0 0.0
2016-Jul-19 09:30S 36°50' E 174°46'0 0.0
2016-Jul-19 08:30S 36°50' E 174°46'0 0.0
2016-Jul-19 07:30S 36°50' E 174°46'0 0.0
2016-Jul-19 04:30S 36°50' E 174°46'0 0.0
2016-Jul-19 03:30S 36°50' E 174°46'0 0.0
2016-Jul-19 02:30S 36°50' E 174°46'0 0.0
2016-Jul-19 01:30S 36°50' E 174°46'0 0.1
2016-Jul-19 00:30S 36°50' E 174°46'0 0.0
2016-Jul-18 23:30S 36°50' E 174°46'0 0.0
2016-Jul-18 21:30S 36°50' E 174°46'0 0.0
2016-Jul-18 20:12S 36°50' E 174°46'0 0.1
2016-Jul-18 19:30S 36°50' E 174°46'0 0.0
2016-Jul-18 18:30S 36°50' E 174°46'0 0.0
2016-Jul-18 17:24S 36°50' E 174°46'0 0.0
2016-Jul-18 16:24S 36°50' E 174°46'0 0.0
2016-Jul-18 15:24S 36°50' E 174°46'0 0.0
2016-Jul-18 14:30S 36°50' E 174°46'0 0.0
2016-Jul-18 10:30S 36°50' E 174°46'3 3.7
2016-Jul-18 09:33S 36°49' E 174°50'5 5.4
2016-Jul-18 08:32S 36°43' E 174°51'0 0.1
2016-Jul-18 07:32S 36°43' E 174°51'0 0.1
2016-Jul-18 06:20S 36°43' E 174°51'0 0.0
2016-Jul-18 05:32S 36°43' E 174°51'0 0.1
2016-Jul-18 04:32S 36°43' E 174°51'0 0.0
2016-Jul-18 03:32S 36°43' E 174°51'0 0.0
2016-Jul-18 02:26S 36°43' E 174°51'0 0.1
2016-Jul-18 01:32S 36°43' E 174°51'0 0.1
2016-Jul-18 00:32S 36°43' E 174°51'0 0.0
2016-Jul-17 23:26S 36°43' E 174°51'0 0.0
2016-Jul-17 22:32S 36°43' E 174°51'0 0.1
2016-Jul-17 21:32S 36°43' E 174°51'0 0.0
2016-Jul-17 20:32S 36°43' E 174°51'0 0.1
2016-Jul-17 19:32S 36°43' E 174°51'0 0.0
2016-Jul-17 18:32S 36°43' E 174°51'0 0.0
2016-Jul-17 17:32S 36°43' E 174°51'0 0.0
2016-Jul-17 16:26S 36°43' E 174°51'0 0.0
2016-Jul-17 15:32S 36°43' E 174°51'0 0.0
2016-Jul-17 14:32S 36°43' E 174°51'0 0.0
2016-Jul-17 13:32S 36°43' E 174°51'0 0.0
2016-Jul-17 12:32S 36°43' E 174°51'0 0.0
2016-Jul-17 11:32S 36°43' E 174°51'0 0.0
2016-Jul-17 10:32S 36°43' E 174°51'0 0.1
2016-Jul-17 09:32S 36°43' E 174°51'1 0.5
2016-Jul-17 08:33S 36°43' E 174°51'8 8.2
2016-Jul-17 07:33S 36°37' E 174°57'7 6.9
2016-Jul-17 06:33S 36°30' E 174°59'13 6.3
2016-Jul-17 04:33S 36°18' E 174°58'  

Dump ship's entire track history